createdAt,value
2018-01-29T00:01:02.108Z,40.97
2018-01-29T00:03:29.963Z,40.57
2018-01-29T00:05:57.846Z,46.00
2018-01-29T00:08:25.774Z,45.23
2018-01-29T00:10:54.363Z,43.00
2018-01-29T00:13:22.856Z,41.40
2018-01-29T00:15:50.996Z,40.40
2018-01-29T00:18:18.847Z,42.27
2018-01-29T00:20:46.741Z,40.70
2018-01-29T00:23:14.769Z,40.77
2018-01-29T00:25:42.614Z,39.90
2018-01-29T00:28:10.461Z,40.80
2018-01-29T00:30:38.367Z,39.83
2018-01-29T00:33:06.220Z,40.07
2018-01-29T00:35:34.084Z,40.67
2018-01-29T00:38:02.032Z,42.33
2018-01-29T00:40:29.889Z,44.73
2018-01-29T00:42:57.737Z,41.77
2018-01-29T00:45:25.655Z,40.53
2018-01-29T00:47:53.556Z,41.33
2018-01-29T00:50:21.857Z,44.10
2018-01-29T00:52:49.974Z,43.00
2018-01-29T00:55:18.202Z,43.90
2018-01-29T00:57:46.055Z,43.40
2018-01-29T01:00:14.007Z,42.43
2018-01-29T01:02:41.863Z,42.17
2018-01-29T01:05:09.707Z,42.37
2018-01-29T01:07:38.042Z,42.10
2018-01-29T01:10:05.899Z,40.77
2018-01-29T01:12:33.751Z,41.17
2018-01-29T01:15:01.637Z,42.23
2018-01-29T01:17:29.470Z,42.07
2018-01-29T01:19:57.392Z,41.57
2018-01-29T01:22:26.461Z,43.20
2018-01-29T01:24:54.326Z,44.27
2018-01-29T01:27:22.198Z,43.63
2018-01-29T01:29:50.125Z,42.63
2018-01-29T01:32:17.993Z,43.30
2018-01-29T01:34:45.858Z,43.13
2018-01-29T01:37:14.441Z,41.93
2018-01-29T01:39:42.281Z,42.37
2018-01-29T01:42:10.208Z,41.33
2018-01-29T01:44:38.178Z,42.57
2018-01-29T01:47:06.030Z,41.80
2018-01-29T01:49:34.022Z,41.90
2018-01-29T01:52:01.944Z,39.67
2018-01-29T01:54:29.791Z,40.83
2018-01-29T01:56:57.751Z,40.37
2018-01-29T01:59:25.655Z,42.57
2018-01-29T02:01:53.503Z,42.03
2018-01-29T02:04:21.365Z,40.50
2018-01-29T02:06:49.264Z,42.17
2018-01-29T02:09:17.110Z,43.30
2018-01-29T02:11:44.996Z,41.37
2018-01-29T02:14:12.898Z,38.47
2018-01-29T02:16:40.747Z,42.93
2018-01-29T02:19:08.586Z,38.73
2018-01-29T02:21:36.479Z,41.13
2018-01-29T02:24:04.374Z,40.37
2018-01-29T02:26:32.226Z,43.77
2018-01-29T02:29:00.182Z,40.37
2018-01-29T02:31:28.064Z,40.20
2018-01-29T02:33:55.910Z,38.77
2018-01-29T02:36:24.080Z,39.70
2018-01-29T02:38:51.986Z,39.17
2018-01-29T02:41:19.873Z,40.93
2018-01-29T02:43:47.775Z,41.60
2018-01-29T02:46:15.657Z,45.07
2018-01-29T02:48:43.540Z,43.97
2018-01-29T02:51:11.939Z,47.57
2018-01-29T02:53:39.832Z,50.27
2018-01-29T02:56:07.720Z,50.03
2018-01-29T02:58:35.734Z,49.27
2018-01-29T03:01:03.595Z,50.77
2018-01-29T03:03:31.512Z,52.07
2018-01-29T03:05:59.434Z,48.57
2018-01-29T03:08:28.201Z,51.80
2018-01-29T03:10:56.061Z,52.67
2018-01-29T03:13:24.293Z,52.50
2018-01-29T03:15:52.130Z,51.63
2018-01-29T03:18:20.001Z,53.50
2018-01-29T03:20:47.955Z,51.93
2018-01-29T03:23:15.820Z,52.00
2018-01-29T03:25:43.711Z,50.40
2018-01-29T03:28:11.614Z,49.33
2018-01-29T03:30:39.479Z,49.30
2018-01-29T03:33:07.367Z,48.27
2018-01-29T03:35:35.267Z,48.40
2018-01-29T03:38:03.124Z,47.70
2018-01-29T03:40:30.990Z,52.00
2018-01-29T03:42:58.903Z,54.13
2018-01-29T03:45:26.807Z,52.57
2018-01-29T03:47:54.662Z,49.97
2018-01-29T03:50:22.795Z,53.97
2018-01-29T03:52:50.726Z,53.87
2018-01-29T03:55:18.635Z,56.67
2018-01-29T03:57:46.551Z,52.87
2018-01-29T04:00:14.538Z,50.17
2018-01-29T04:02:43.322Z,50.20
2018-01-29T04:05:11.682Z,51.73
2018-01-29T04:07:39.534Z,49.50
2018-01-29T04:10:07.371Z,48.30
2018-01-29T04:12:35.275Z,50.23
2018-01-29T04:15:03.124Z,49.77
2018-01-29T04:17:30.990Z,49.83
2018-01-29T04:19:59.165Z,53.03
2018-01-29T04:22:26.997Z,51.30
2018-01-29T04:24:54.882Z,49.93
2018-01-29T04:27:22.792Z,52.37
2018-01-29T04:29:51.214Z,50.97
2018-01-29T04:32:19.066Z,47.40
2018-01-29T04:34:46.966Z,45.10
2018-01-29T04:37:14.818Z,46.17
2018-01-29T04:39:42.656Z,52.63
2018-01-29T04:42:10.566Z,55.07
2018-01-29T04:44:38.495Z,50.97
2018-01-29T04:47:06.382Z,53.13
2018-01-29T04:49:34.274Z,50.80
2018-01-29T04:52:02.140Z,54.80
2018-01-29T04:54:29.986Z,51.73
2018-01-29T04:56:57.890Z,50.50
2018-01-29T04:59:25.768Z,50.93
2018-01-29T05:01:53.694Z,50.97
2018-01-29T05:04:21.899Z,52.17
2018-01-29T05:06:49.737Z,51.20
2018-01-29T05:09:17.588Z,49.77
2018-01-29T05:11:45.525Z,53.97
2018-01-29T05:14:13.389Z,50.13
2018-01-29T05:16:41.265Z,50.30
2018-01-29T05:19:09.187Z,50.93
2018-01-29T05:21:37.061Z,50.83
2018-01-29T05:24:05.464Z,51.63
2018-01-29T05:26:33.376Z,51.10
2018-01-29T05:29:01.244Z,47.50
2018-01-29T05:31:29.110Z,47.47
2018-01-29T05:33:57.062Z,45.23
2018-01-29T05:36:25.515Z,50.00
2018-01-29T05:38:58.064Z,50.10
2018-01-29T05:41:25.969Z,52.60
2018-01-29T05:43:53.851Z,50.00
2018-01-29T05:46:22.290Z,52.67
2018-01-29T05:48:50.192Z,55.03
2018-01-29T05:51:18.095Z,62.73
2018-01-29T05:53:46.047Z,53.33
2018-01-29T05:56:13.908Z,52.97
2018-01-29T05:58:41.789Z,52.07
2018-01-29T06:01:09.716Z,51.80
2018-01-29T06:03:37.662Z,55.93
2018-01-29T06:06:05.522Z,56.23
2018-01-29T06:08:33.399Z,57.57
2018-01-29T06:11:01.295Z,66.50
2018-01-29T06:13:29.163Z,76.23
2018-01-29T06:15:57.080Z,73.37
2018-01-29T06:18:24.947Z,83.53
2018-01-29T06:20:55.716Z,72.60
2018-01-29T06:23:23.658Z,72.63
2018-01-29T06:25:51.524Z,69.83
2018-01-29T06:28:19.722Z,68.77
2018-01-29T06:30:47.624Z,69.90
2018-01-29T06:33:15.491Z,70.40
2018-01-29T06:35:43.327Z,72.47
2018-01-29T06:38:11.502Z,73.80
2018-01-29T06:40:39.408Z,70.97
2018-01-29T06:43:07.255Z,72.80
2018-01-29T06:45:35.161Z,69.33
2018-01-29T06:48:03.007Z,70.20
2018-01-29T06:50:30.844Z,72.23
2018-01-29T06:52:58.823Z,72.57
2018-01-29T06:55:26.691Z,69.73
2018-01-29T06:57:54.555Z,69.00
2018-01-29T07:00:23.358Z,70.70
2018-01-29T07:02:51.225Z,70.60
2018-01-29T07:05:19.576Z,66.87
2018-01-29T07:07:47.795Z,66.43
2018-01-29T07:10:15.714Z,64.10
2018-01-29T07:12:43.560Z,66.77
2018-01-29T07:15:11.470Z,64.57
2018-01-29T07:17:39.342Z,65.67
2018-01-29T07:20:07.223Z,71.80
2018-01-29T07:22:35.115Z,67.10
2018-01-29T07:25:02.958Z,68.73
2018-01-29T07:27:30.871Z,76.63
2018-01-29T07:29:58.799Z,70.57
2018-01-29T07:32:26.642Z,70.73
2018-01-29T07:34:54.481Z,67.40
2018-01-29T07:37:22.442Z,70.40
2018-01-29T07:39:50.324Z,67.93
2018-01-29T07:42:18.201Z,67.00
2018-01-29T07:44:46.138Z,72.17
2018-01-29T07:47:14.002Z,71.77
2018-01-29T07:49:41.893Z,76.70
2018-01-29T07:52:09.811Z,81.17
2018-01-29T07:54:38.427Z,80.47
2018-01-29T07:57:07.249Z,86.00
2018-01-29T07:59:35.741Z,91.60
2018-01-29T08:02:04.423Z,104.50
2018-01-29T08:04:33.554Z,107.43
2018-01-29T08:07:01.561Z,105.80
2018-01-29T08:09:29.433Z,104.80
2018-01-29T08:11:57.319Z,102.77
2018-01-29T08:14:25.230Z,103.77
2018-01-29T08:16:53.109Z,102.97
2018-01-29T08:19:20.986Z,102.17
2018-01-29T08:21:48.898Z,104.47
2018-01-29T08:24:16.753Z,102.20
2018-01-29T08:26:45.035Z,94.43
2018-01-29T08:29:12.938Z,91.93
2018-01-29T08:31:40.852Z,90.40
2018-01-29T08:34:08.718Z,90.27
2018-01-29T08:36:36.823Z,86.67
2018-01-29T08:39:04.792Z,87.13
2018-01-29T08:41:32.715Z,89.87
2018-01-29T08:44:00.711Z,88.07
2018-01-29T08:46:28.562Z,87.27
2018-01-29T08:48:56.441Z,81.63
2018-01-29T08:51:24.393Z,79.37
2018-01-29T08:53:52.259Z,73.67
2018-01-29T08:56:20.116Z,74.83
2018-01-29T08:58:48.061Z,70.17
2018-01-29T09:01:15.925Z,73.60
2018-01-29T09:03:43.778Z,71.13
2018-01-29T09:06:11.994Z,69.97
2018-01-29T09:08:39.887Z,74.37
2018-01-29T09:11:08.273Z,70.83
2018-01-29T09:13:36.227Z,69.00
2018-01-29T09:16:04.102Z,69.27
2018-01-29T09:18:31.967Z,69.53
2018-01-29T09:20:59.864Z,69.37
2018-01-29T09:23:27.719Z,67.43
2018-01-29T09:25:55.567Z,64.40
2018-01-29T09:28:23.495Z,64.70
2018-01-29T09:30:51.369Z,67.47
2018-01-29T09:33:19.321Z,64.47
2018-01-29T09:35:47.351Z,65.83
2018-01-29T09:38:15.306Z,66.73
2018-01-29T09:40:43.195Z,67.30
2018-01-29T09:43:11.115Z,63.30
2018-01-29T09:45:38.984Z,61.97
2018-01-29T09:48:07.431Z,59.53
2018-01-29T09:50:35.388Z,62.90
2018-01-29T09:53:03.257Z,63.63
2018-01-29T09:55:31.155Z,66.67
2018-01-29T09:57:59.096Z,67.17
2018-01-29T10:00:27.028Z,67.37
2018-01-29T10:02:54.973Z,64.67
2018-01-29T10:05:22.959Z,64.00
2018-01-29T10:07:50.868Z,61.37
2018-01-29T10:10:19.203Z,60.20
2018-01-29T10:12:47.483Z,59.63
2018-01-29T10:15:15.366Z,63.73
2018-01-29T10:17:43.258Z,57.40
2018-01-29T10:20:11.207Z,58.07
2018-01-29T10:22:39.062Z,56.90
2018-01-29T10:25:06.907Z,56.57
2018-01-29T10:27:34.833Z,56.50
2018-01-29T10:30:02.707Z,56.63
2018-01-29T10:32:30.713Z,57.63
2018-01-29T10:34:58.649Z,57.63
2018-01-29T10:37:26.529Z,55.10
2018-01-29T10:39:54.383Z,65.80
2018-01-29T10:42:22.349Z,55.83
2018-01-29T10:44:50.226Z,56.37
2018-01-29T10:47:18.064Z,55.60
2018-01-29T10:49:45.961Z,56.50
2018-01-29T10:52:14.325Z,59.53
2018-01-29T10:54:42.175Z,61.67
2018-01-29T10:57:10.067Z,61.90
2018-01-29T10:59:37.986Z,59.63
2018-01-29T11:02:05.866Z,57.30
2018-01-29T11:04:35.013Z,55.87
2018-01-29T11:07:02.891Z,55.67
2018-01-29T11:09:30.841Z,54.97
2018-01-29T11:11:59.897Z,53.00
2018-01-29T11:14:28.144Z,55.03
2018-01-29T11:16:56.008Z,51.50
2018-01-29T11:19:23.984Z,50.83
2018-01-29T11:21:51.904Z,51.73
2018-01-29T11:24:20.250Z,52.17
2018-01-29T11:26:49.214Z,52.13
2018-01-29T11:29:17.096Z,51.27
2018-01-29T11:31:44.987Z,49.87
2018-01-29T11:34:18.228Z,49.50
2018-01-29T11:36:46.648Z,49.97
2018-01-29T11:39:15.264Z,49.17
2018-01-29T11:41:43.909Z,51.17
2018-01-29T11:44:11.806Z,47.93
2018-01-29T11:46:40.498Z,46.57
2018-01-29T11:49:08.892Z,46.97
2018-01-29T11:51:39.756Z,42.97
2018-01-29T11:54:08.731Z,39.93
2018-01-29T11:56:37.814Z,47.00
2018-01-29T11:59:06.000Z,48.80
2018-01-29T12:01:34.489Z,52.50
2018-01-29T12:04:02.407Z,53.60
2018-01-29T12:06:30.303Z,50.23
2018-01-29T12:08:58.331Z,50.50
2018-01-29T12:11:26.501Z,48.50
2018-01-29T12:13:54.519Z,48.40
2018-01-29T12:16:22.446Z,42.80
2018-01-29T12:18:50.464Z,38.03
2018-01-29T12:21:18.311Z,40.50
2018-01-29T12:23:46.281Z,39.67
2018-01-29T12:26:14.256Z,37.43
2018-01-29T12:28:42.185Z,36.97
2018-01-29T12:31:10.114Z,36.07
2018-01-29T12:33:38.066Z,35.17
2018-01-29T12:36:05.958Z,33.10
2018-01-29T12:38:34.585Z,34.95
2018-01-29T12:41:02.535Z,34.30
2018-01-29T12:43:30.507Z,35.60
2018-01-29T12:45:59.661Z,37.30
2018-01-29T12:48:27.694Z,38.50
2018-01-29T12:50:55.640Z,37.10
2018-01-29T12:53:23.741Z,36.67
2018-01-29T12:55:51.766Z,36.60
2018-01-29T12:58:20.007Z,36.70
2018-01-29T13:00:48.298Z,35.97
2018-01-29T13:03:16.203Z,39.95
2018-01-29T13:05:44.096Z,38.50
2018-01-29T13:08:11.958Z,40.30
2018-01-29T13:10:39.932Z,41.10
2018-01-29T13:13:08.407Z,39.53
2018-01-29T13:15:36.570Z,39.70
2018-01-29T13:18:04.539Z,38.23
2018-01-29T13:20:32.437Z,38.00
2018-01-29T13:23:00.524Z,39.03
2018-01-29T13:25:28.692Z,39.17
2018-01-29T13:27:56.540Z,39.93
2018-01-29T13:30:24.454Z,37.20
2018-01-29T13:32:52.448Z,37.63
2018-01-29T13:35:20.488Z,40.08
2018-01-29T13:37:48.350Z,42.03
2018-01-29T13:40:16.250Z,43.05
2018-01-29T13:42:44.134Z,43.60
2018-01-29T13:45:12.154Z,41.17
2018-01-29T13:47:40.074Z,39.45
2018-01-29T13:50:07.938Z,33.35
2018-01-29T13:52:35.787Z,35.03
2018-01-29T13:55:03.732Z,31.60
2018-01-29T13:57:31.608Z,27.45
2018-01-29T13:59:59.476Z,27.25
2018-01-29T14:02:27.384Z,42.10
2018-01-29T14:04:55.311Z,42.43
2018-01-29T14:07:23.230Z,44.07
2018-01-29T14:09:51.251Z,41.40
2018-01-29T14:12:19.340Z,41.70
2018-01-29T14:14:47.528Z,41.83
2018-01-29T14:17:15.869Z,42.50
2018-01-29T14:19:44.809Z,43.60
2018-01-29T14:22:12.868Z,41.90
2018-01-29T14:24:41.677Z,36.07
2018-01-29T14:27:10.070Z,37.63
2018-01-29T14:29:38.314Z,8.43
2018-01-29T14:32:06.642Z,2.70
2018-01-29T14:34:35.094Z,2.10
2018-01-29T14:37:03.687Z,2.10
2018-01-29T14:39:31.788Z,1.80
2018-01-29T14:42:00.318Z,2.57
2018-01-29T14:44:28.541Z,2.00
2018-01-29T14:46:56.771Z,1.70
2018-01-29T14:49:24.901Z,1.90
2018-01-29T14:51:53.158Z,2.43
2018-01-29T14:54:21.516Z,2.10
2018-01-29T14:56:49.614Z,1.80
2018-01-29T14:59:17.719Z,1.80
2018-01-29T15:01:45.721Z,1.67
2018-01-29T15:04:13.730Z,1.63
2018-01-29T15:06:42.336Z,1.80
2018-01-29T15:09:10.337Z,2.10
2018-01-29T15:11:38.400Z,2.03
2018-01-29T15:14:06.958Z,2.00
2018-01-29T15:16:35.140Z,1.83
2018-01-29T15:19:03.168Z,1.90
2018-01-29T15:21:31.072Z,3.03
2018-01-29T15:24:00.036Z,1.80
2018-01-29T15:26:29.114Z,1.97
2018-01-29T15:28:57.255Z,2.10
2018-01-29T15:31:25.393Z,1.93
2018-01-29T15:33:55.542Z,1.97
2018-01-29T15:36:24.506Z,2.00
2018-01-29T15:38:53.750Z,1.90
2018-01-29T15:41:22.943Z,2.23
2018-01-29T15:43:51.950Z,2.00
2018-01-29T15:46:21.221Z,3.67
2018-01-29T15:48:50.331Z,2.93
2018-01-29T15:51:19.747Z,2.97
2018-01-29T15:53:47.757Z,2.20
2018-01-29T15:56:15.805Z,2.23
2018-01-29T15:58:43.893Z,2.37
2018-01-29T16:01:11.916Z,2.03
2018-01-29T16:03:39.895Z,2.10
2018-01-29T16:06:07.913Z,2.50
2018-01-29T16:08:35.915Z,2.70
2018-01-29T16:11:03.899Z,3.37
2018-01-29T16:13:31.788Z,4.87
2018-01-29T16:15:59.765Z,3.63
2018-01-29T16:18:27.661Z,2.60
2018-01-29T16:20:55.921Z,6.67
2018-01-29T16:23:23.925Z,32.13
2018-01-29T16:25:51.868Z,41.17
2018-01-29T16:28:19.791Z,41.40
2018-01-29T16:30:47.697Z,39.70
2018-01-29T16:33:15.668Z,41.70
2018-01-29T16:35:43.544Z,43.33
2018-01-29T16:38:11.546Z,43.27
2018-01-29T16:40:39.379Z,46.73
2018-01-29T16:43:07.458Z,44.37
2018-01-29T16:45:35.467Z,45.03
2018-01-29T16:48:03.337Z,43.97
2018-01-29T16:50:31.363Z,42.20
2018-01-29T16:52:59.832Z,41.30
2018-01-29T16:55:28.043Z,38.90
2018-01-29T16:57:55.963Z,37.00
2018-01-29T17:00:24.085Z,35.27
2018-01-29T17:02:52.234Z,31.23
2018-01-29T17:05:20.307Z,28.77
2018-01-29T17:07:48.353Z,35.07
2018-01-29T17:10:16.398Z,26.87
2018-01-29T17:12:44.379Z,27.73
2018-01-29T17:15:12.427Z,29.73
2018-01-29T17:17:40.384Z,34.17
2018-01-29T17:20:08.406Z,26.37
2018-01-29T17:22:36.622Z,23.80
2018-01-29T17:25:04.641Z,23.40
2018-01-29T17:27:32.642Z,24.07
2018-01-29T17:30:00.617Z,23.07
2018-01-29T17:32:28.611Z,24.87
2018-01-29T17:34:56.675Z,23.23
2018-01-29T17:37:24.690Z,23.50
2018-01-29T17:39:52.664Z,23.10
2018-01-29T17:42:20.659Z,25.23
2018-01-29T17:44:48.637Z,24.93
2018-01-29T17:47:16.630Z,24.23
2018-01-29T17:49:44.568Z,25.23
2018-01-29T17:52:12.642Z,24.83
2018-01-29T17:54:40.574Z,25.70
2018-01-29T17:57:08.427Z,32.53
2018-01-29T17:59:36.372Z,26.03
2018-01-29T18:02:04.262Z,26.97
2018-01-29T18:04:32.119Z,26.63
2018-01-29T18:07:00.030Z,29.07
2018-01-29T18:09:27.963Z,26.83
2018-01-29T18:11:55.807Z,26.60
2018-01-29T18:14:23.715Z,24.30
2018-01-29T18:16:51.547Z,23.10
2018-01-29T18:19:19.390Z,21.50
2018-01-29T18:21:47.278Z,19.63
2018-01-29T18:24:15.266Z,18.33
2018-01-29T18:26:43.127Z,18.57
2018-01-29T18:29:11.012Z,18.50
2018-01-29T18:31:39.378Z,16.80
2018-01-29T18:34:09.282Z,17.20
2018-01-29T18:36:37.199Z,17.57
2018-01-29T18:39:05.106Z,18.00
2018-01-29T18:41:32.956Z,16.90
2018-01-29T18:44:00.843Z,17.70
2018-01-29T18:46:28.732Z,17.80
2018-01-29T18:48:56.646Z,18.07
2018-01-29T18:51:24.783Z,16.87
2018-01-29T18:53:52.678Z,18.77
2018-01-29T18:56:20.521Z,31.27
2018-01-29T18:58:48.397Z,39.93
2018-01-29T19:01:16.227Z,45.67
2018-01-29T19:03:44.066Z,45.23
2018-01-29T19:06:11.969Z,45.97
2018-01-29T19:08:39.892Z,56.73
2018-01-29T19:11:07.730Z,53.83
2018-01-29T19:13:35.647Z,53.60
2018-01-29T19:16:03.522Z,51.00
2018-01-29T19:18:31.415Z,50.13
2018-01-29T19:20:59.421Z,47.53
2018-01-29T19:23:27.250Z,49.13
2018-01-29T19:25:55.422Z,49.73
2018-01-29T19:28:23.407Z,55.67
2018-01-29T19:30:51.260Z,65.90
2018-01-29T19:33:21.249Z,70.87
2018-01-29T19:35:49.150Z,79.37
2018-01-29T19:38:17.007Z,76.40
2018-01-29T19:40:44.876Z,72.00
2018-01-29T19:43:12.784Z,70.93
2018-01-29T19:45:40.650Z,71.57
2018-01-29T19:48:08.495Z,70.17
2018-01-29T19:50:36.394Z,70.43
2018-01-29T19:53:04.263Z,66.00
2018-01-29T19:55:32.122Z,61.27
2018-01-29T19:58:00.035Z,58.40
2018-01-29T20:00:27.906Z,60.07
2018-01-29T20:02:55.747Z,55.43
2018-01-29T20:05:23.654Z,49.43
2018-01-29T20:07:51.580Z,48.60
2018-01-29T20:10:19.442Z,46.30
2018-01-29T20:12:47.374Z,50.10
2018-01-29T20:15:15.296Z,95.50
2018-01-29T20:17:43.127Z,54.03
2018-01-29T20:20:11.059Z,51.00
2018-01-29T20:22:38.899Z,49.93
2018-01-29T20:25:06.738Z,45.77
2018-01-29T20:27:34.758Z,48.70
2018-01-29T20:30:02.587Z,38.93
2018-01-29T20:32:30.431Z,36.30
2018-01-29T20:34:59.482Z,34.40
2018-01-29T20:37:27.331Z,40.33
2018-01-29T20:39:55.168Z,35.43
2018-01-29T20:42:23.081Z,36.17
2018-01-29T20:44:50.979Z,37.97
2018-01-29T20:47:18.818Z,41.80
2018-01-29T20:49:46.702Z,39.97
2018-01-29T20:52:14.569Z,39.93
2018-01-29T20:54:42.461Z,38.50
2018-01-29T20:57:10.353Z,35.77
2018-01-29T20:59:38.208Z,34.57
2018-01-29T21:02:06.053Z,32.43
2018-01-29T21:04:34.002Z,32.50
2018-01-29T21:07:01.838Z,32.63
2018-01-29T21:09:30.215Z,33.90
2018-01-29T21:11:58.115Z,30.40
2018-01-29T21:14:25.961Z,30.43
2018-01-29T21:16:53.799Z,29.17
2018-01-29T21:19:22.102Z,29.77
2018-01-29T21:21:49.959Z,30.43
2018-01-29T21:24:17.795Z,28.40
2018-01-29T21:26:45.714Z,28.13
2018-01-29T21:29:13.634Z,28.47
2018-01-29T21:31:41.475Z,27.13
2018-01-29T21:34:09.385Z,25.03
2018-01-29T21:36:37.222Z,24.07
2018-01-29T21:39:05.127Z,23.67
2018-01-29T21:41:33.059Z,23.67
2018-01-29T21:44:00.894Z,23.20
2018-01-29T21:46:28.744Z,23.13
2018-01-29T21:48:56.657Z,23.93
2018-01-29T21:51:24.565Z,23.70
2018-01-29T21:53:52.410Z,22.83
2018-01-29T21:56:20.533Z,22.53
2018-01-29T21:58:48.455Z,23.10
2018-01-29T22:01:16.412Z,22.07
2018-01-29T22:03:44.479Z,22.60
2018-01-29T22:06:12.321Z,24.60
2018-01-29T22:08:40.175Z,24.20
2018-01-29T22:11:08.112Z,24.33
2018-01-29T22:13:35.959Z,21.90
2018-01-29T22:16:03.834Z,22.20
2018-01-29T22:18:31.742Z,23.43
2018-01-29T22:20:59.570Z,20.67
2018-01-29T22:23:27.408Z,22.87
2018-01-29T22:25:55.338Z,22.10
2018-01-29T22:28:23.187Z,21.77
2018-01-29T22:30:51.708Z,21.03
2018-01-29T22:33:19.962Z,21.23
2018-01-29T22:35:47.807Z,20.17
2018-01-29T22:38:15.638Z,21.23
2018-01-29T22:40:43.534Z,20.97
2018-01-29T22:43:11.373Z,19.47
2018-01-29T22:45:39.210Z,20.20
2018-01-29T22:48:07.095Z,21.60
2018-01-29T22:50:34.922Z,20.77
2018-01-29T22:53:02.772Z,21.47
2018-01-29T22:55:30.669Z,21.80
2018-01-29T22:57:58.615Z,23.40
2018-01-29T23:00:26.445Z,22.83
2018-01-29T23:02:54.399Z,22.60
2018-01-29T23:05:22.223Z,23.57
2018-01-29T23:07:50.086Z,23.17
2018-01-29T23:10:17.996Z,26.10
2018-01-29T23:12:45.826Z,35.10
2018-01-29T23:15:13.698Z,47.73
2018-01-29T23:17:41.631Z,52.90
2018-01-29T23:20:09.556Z,37.70
2018-01-29T23:22:37.387Z,36.57
2018-01-29T23:25:05.662Z,29.60
2018-01-29T23:27:33.507Z,27.27
2018-01-29T23:30:01.343Z,26.30
2018-01-29T23:32:29.358Z,25.43
2018-01-29T23:34:57.213Z,23.83
2018-01-29T23:37:25.051Z,24.40
2018-01-29T23:39:52.938Z,22.83
2018-01-29T23:42:20.774Z,23.63
2018-01-29T23:44:48.639Z,22.90
2018-01-29T23:47:16.523Z,25.33
2018-01-29T23:49:44.373Z,23.03
2018-01-29T23:52:12.198Z,20.27
2018-01-29T23:54:40.086Z,22.10
2018-01-29T23:57:07.918Z,23.87
2018-01-29T23:59:35.758Z,21.00
